sensor_id;sensor_type;location;lat;lon;timestamp;P1;durP1;ratioP1;P2;durP2;ratioP2
78875;SDS011;68253;52.506;5.486;2023-03-14T00:02:09;11.05;;;7.43;;
78875;SDS011;68253;52.506;5.486;2023-03-14T00:04:36;10.50;;;6.75;;
78875;SDS011;68253;52.506;5.486;2023-03-14T00:07:02;11.27;;;7.10;;
78875;SDS011;68253;52.506;5.486;2023-03-14T00:09:29;11.75;;;7.40;;
78875;SDS011;68253;52.506;5.486;2023-03-14T00:11:55;9.73;;;6.68;;
78875;SDS011;68253;52.506;5.486;2023-03-14T00:14:22;9.43;;;6.32;;
78875;SDS011;68253;52.506;5.486;2023-03-14T00:16:48;9.95;;;6.38;;
78875;SDS011;68253;52.506;5.486;2023-03-14T00:19:15;10.68;;;6.45;;
78875;SDS011;68253;52.506;5.486;2023-03-14T00:21:41;11.02;;;6.18;;
78875;SDS011;68253;52.506;5.486;2023-03-14T00:24:07;9.32;;;5.70;;
78875;SDS011;68253;52.506;5.486;2023-03-14T00:26:34;9.80;;;5.82;;
78875;SDS011;68253;52.506;5.486;2023-03-14T00:29:00;9.52;;;5.95;;
78875;SDS011;68253;52.506;5.486;2023-03-14T00:31:26;10.27;;;5.93;;
78875;SDS011;68253;52.506;5.486;2023-03-14T00:33:52;9.98;;;5.65;;
78875;SDS011;68253;52.506;5.486;2023-03-14T00:36:19;9.32;;;5.70;;
78875;SDS011;68253;52.506;5.486;2023-03-14T00:38:49;10.18;;;5.45;;
78875;SDS011;68253;52.506;5.486;2023-03-14T00:41:18;9.07;;;5.25;;
78875;SDS011;68253;52.506;5.486;2023-03-14T00:43:47;9.63;;;5.40;;
78875;SDS011;68253;52.506;5.486;2023-03-14T00:46:14;11.30;;;5.60;;
78875;SDS011;68253;52.506;5.486;2023-03-14T00:48:43;9.30;;;5.78;;
78875;SDS011;68253;52.506;5.486;2023-03-14T00:51:11;8.95;;;5.22;;
78875;SDS011;68253;52.506;5.486;2023-03-14T00:53:42;9.95;;;4.97;;
78875;SDS011;68253;52.506;5.486;2023-03-14T00:56:10;9.93;;;5.10;;
78875;SDS011;68253;52.506;5.486;2023-03-14T00:58:37;9.30;;;4.65;;
78875;SDS011;68253;52.506;5.486;2023-03-14T01:01:08;9.40;;;4.63;;
78875;SDS011;68253;52.506;5.486;2023-03-14T01:03:36;9.25;;;4.70;;
78875;SDS011;68253;52.506;5.486;2023-03-14T01:06:06;8.50;;;5.30;;
78875;SDS011;68253;52.506;5.486;2023-03-14T01:08:43;9.05;;;4.43;;
78875;SDS011;68253;52.506;5.486;2023-03-14T01:11:10;7.97;;;4.30;;
78875;SDS011;68253;52.506;5.486;2023-03-14T01:13:38;8.48;;;4.68;;
78875;SDS011;68253;52.506;5.486;2023-03-14T01:16:05;8.80;;;4.40;;
78875;SDS011;68253;52.506;5.486;2023-03-14T01:18:36;8.15;;;3.92;;
78875;SDS011;68253;52.506;5.486;2023-03-14T01:21:09;7.95;;;4.00;;
78875;SDS011;68253;52.506;5.486;2023-03-14T01:23:42;8.13;;;3.67;;
78875;SDS011;68253;52.506;5.486;2023-03-14T01:26:09;7.43;;;3.92;;
78875;SDS011;68253;52.506;5.486;2023-03-14T01:28:37;8.15;;;3.65;;
78875;SDS011;68253;52.506;5.486;2023-03-14T01:31:04;9.23;;;3.70;;
78875;SDS011;68253;52.506;5.486;2023-03-14T01:33:31;8.10;;;3.80;;
78875;SDS011;68253;52.506;5.486;2023-03-14T01:35:58;7.43;;;3.72;;
78875;SDS011;68253;52.506;5.486;2023-03-14T01:38:24;7.22;;;3.13;;
78875;SDS011;68253;52.506;5.486;2023-03-14T01:40:51;7.90;;;3.42;;
78875;SDS011;68253;52.506;5.486;2023-03-14T01:43:18;8.13;;;3.30;;
78875;SDS011;68253;52.506;5.486;2023-03-14T01:53:59;9.02;;;3.42;;
78875;SDS011;68253;52.506;5.486;2023-03-14T01:56:31;7.13;;;2.80;;
78875;SDS011;68253;52.506;5.486;2023-03-14T01:58:58;7.45;;;3.03;;
78875;SDS011;68253;52.506;5.486;2023-03-14T02:01:26;8.88;;;3.17;;
78875;SDS011;68253;52.506;5.486;2023-03-14T02:03:54;6.38;;;2.78;;
78875;SDS011;68253;52.506;5.486;2023-03-14T02:06:24;6.25;;;2.78;;
78875;SDS011;68253;52.506;5.486;2023-03-14T02:08:57;5.38;;;2.50;;
78875;SDS011;68253;52.506;5.486;2023-03-14T02:11:28;6.32;;;2.92;;
78875;SDS011;68253;52.506;5.486;2023-03-14T02:14:04;6.65;;;2.65;;
78875;SDS011;68253;52.506;5.486;2023-03-14T02:16:53;7.18;;;2.90;;
78875;SDS011;68253;52.506;5.486;2023-03-14T02:22:30;6.05;;;2.60;;
78875;SDS011;68253;52.506;5.486;2023-03-14T02:25:08;6.30;;;2.35;;
78875;SDS011;68253;52.506;5.486;2023-03-14T02:27:42;7.10;;;2.47;;
78875;SDS011;68253;52.506;5.486;2023-03-14T02:30:10;7.72;;;2.55;;
78875;SDS011;68253;52.506;5.486;2023-03-14T02:32:42;5.68;;;2.38;;
78875;SDS011;68253;52.506;5.486;2023-03-14T02:35:14;6.55;;;2.55;;
78875;SDS011;68253;52.506;5.486;2023-03-14T02:37:48;7.13;;;2.50;;
78875;SDS011;68253;52.506;5.486;2023-03-14T02:40:23;7.07;;;2.35;;
78875;SDS011;68253;52.506;5.486;2023-03-14T02:42:52;6.07;;;2.28;;
78875;SDS011;68253;52.506;5.486;2023-03-14T02:47:52;7.95;;;2.40;;
78875;SDS011;68253;52.506;5.486;2023-03-14T02:50:22;6.72;;;2.20;;
78875;SDS011;68253;52.506;5.486;2023-03-14T02:52:53;5.20;;;1.80;;
78875;SDS011;68253;52.506;5.486;2023-03-14T02:55:20;5.13;;;1.80;;
78875;SDS011;68253;52.506;5.486;2023-03-14T02:57:47;5.85;;;2.13;;
78875;SDS011;68253;52.506;5.486;2023-03-14T03:00:14;5.70;;;1.83;;
78875;SDS011;68253;52.506;5.486;2023-03-14T03:02:40;5.85;;;2.08;;
78875;SDS011;68253;52.506;5.486;2023-03-14T03:05:07;6.35;;;1.90;;
78875;SDS011;68253;52.506;5.486;2023-03-14T03:07:33;5.18;;;1.67;;
78875;SDS011;68253;52.506;5.486;2023-03-14T03:09:59;6.82;;;1.85;;
78875;SDS011;68253;52.506;5.486;2023-03-14T03:12:25;6.45;;;1.77;;
78875;SDS011;68253;52.506;5.486;2023-03-14T03:14:52;6.80;;;1.67;;
78875;SDS011;68253;52.506;5.486;2023-03-14T03:17:18;5.57;;;1.73;;
78875;SDS011;68253;52.506;5.486;2023-03-14T03:19:44;5.78;;;1.50;;
78875;SDS011;68253;52.506;5.486;2023-03-14T03:22:10;5.75;;;1.73;;
78875;SDS011;68253;52.506;5.486;2023-03-14T03:24:40;5.90;;;1.58;;
78875;SDS011;68253;52.506;5.486;2023-03-14T03:27:06;5.22;;;1.67;;
78875;SDS011;68253;52.506;5.486;2023-03-14T03:29:32;5.75;;;1.83;;
78875;SDS011;68253;52.506;5.486;2023-03-14T03:31:58;3.10;;;1.20;;
78875;SDS011;68253;52.506;5.486;2023-03-14T03:34:25;6.22;;;1.55;;
78875;SDS011;68253;52.506;5.486;2023-03-14T03:36:57;5.28;;;1.40;;
78875;SDS011;68253;52.506;5.486;2023-03-14T03:39:25;3.72;;;1.17;;
78875;SDS011;68253;52.506;5.486;2023-03-14T03:41:51;4.35;;;1.27;;
78875;SDS011;68253;52.506;5.486;2023-03-14T03:44:18;5.95;;;1.38;;
78875;SDS011;68253;52.506;5.486;2023-03-14T03:46:44;5.38;;;1.35;;
78875;SDS011;68253;52.506;5.486;2023-03-14T03:49:10;6.15;;;1.33;;
78875;SDS011;68253;52.506;5.486;2023-03-14T03:51:37;4.70;;;1.30;;
78875;SDS011;68253;52.506;5.486;2023-03-14T03:54:04;5.20;;;1.40;;
78875;SDS011;68253;52.506;5.486;2023-03-14T03:56:32;3.90;;;1.30;;
78875;SDS011;68253;52.506;5.486;2023-03-14T03:58:59;4.78;;;1.20;;
78875;SDS011;68253;52.506;5.486;2023-03-14T04:01:25;5.13;;;1.20;;
78875;SDS011;68253;52.506;5.486;2023-03-14T04:03:55;4.82;;;1.20;;
78875;SDS011;68253;52.506;5.486;2023-03-14T04:06:21;3.53;;;1.00;;
78875;SDS011;68253;52.506;5.486;2023-03-14T04:08:49;4.88;;;1.10;;
78875;SDS011;68253;52.506;5.486;2023-03-14T04:11:27;6.10;;;1.02;;
78875;SDS011;68253;52.506;5.486;2023-03-14T04:13:59;4.50;;;0.90;;
78875;SDS011;68253;52.506;5.486;2023-03-14T04:16:27;3.50;;;0.90;;
78875;SDS011;68253;52.506;5.486;2023-03-14T04:19:01;3.47;;;0.80;;
78875;SDS011;68253;52.506;5.486;2023-03-14T04:21:28;3.95;;;0.90;;
78875;SDS011;68253;52.506;5.486;2023-03-14T04:23:56;4.65;;;1.02;;
78875;SDS011;68253;52.506;5.486;2023-03-14T04:26:26;2.72;;;0.80;;
78875;SDS011;68253;52.506;5.486;2023-03-14T04:28:52;3.60;;;0.82;;
78875;SDS011;68253;52.506;5.486;2023-03-14T04:31:21;5.25;;;1.10;;
78875;SDS011;68253;52.506;5.486;2023-03-14T04:33:48;3.90;;;0.88;;
78875;SDS011;68253;52.506;5.486;2023-03-14T04:36:18;4.18;;;1.13;;
78875;SDS011;68253;52.506;5.486;2023-03-14T04:38:45;3.38;;;0.88;;
78875;SDS011;68253;52.506;5.486;2023-03-14T04:41:12;5.18;;;0.82;;
78875;SDS011;68253;52.506;5.486;2023-03-14T04:43:39;3.83;;;0.90;;
78875;SDS011;68253;52.506;5.486;2023-03-14T04:46:07;3.78;;;0.70;;
78875;SDS011;68253;52.506;5.486;2023-03-14T04:48:34;4.03;;;0.75;;
78875;SDS011;68253;52.506;5.486;2023-03-14T04:51:00;4.30;;;1.08;;
78875;SDS011;68253;52.506;5.486;2023-03-14T04:53:30;3.72;;;0.70;;
78875;SDS011;68253;52.506;5.486;2023-03-14T04:55:58;3.70;;;0.90;;
78875;SDS011;68253;52.506;5.486;2023-03-14T04:58:30;3.22;;;0.80;;
78875;SDS011;68253;52.506;5.486;2023-03-14T05:01:02;3.38;;;0.60;;
78875;SDS011;68253;52.506;5.486;2023-03-14T05:03:41;3.92;;;0.70;;
78875;SDS011;68253;52.506;5.486;2023-03-14T05:06:22;3.15;;;0.60;;
78875;SDS011;68253;52.506;5.486;2023-03-14T05:09:12;2.97;;;0.52;;
78875;SDS011;68253;52.506;5.486;2023-03-14T05:11:58;3.72;;;0.60;;
78875;SDS011;68253;52.506;5.486;2023-03-14T05:14:42;2.92;;;0.60;;
78875;SDS011;68253;52.506;5.486;2023-03-14T05:17:28;3.58;;;0.70;;
78875;SDS011;68253;52.506;5.486;2023-03-14T05:20:23;3.15;;;0.63;;
78875;SDS011;68253;52.506;5.486;2023-03-14T05:23:09;3.40;;;0.70;;
78875;SDS011;68253;52.506;5.486;2023-03-14T05:25:54;3.63;;;0.70;;
78875;SDS011;68253;52.506;5.486;2023-03-14T05:28:47;2.75;;;0.70;;
78875;SDS011;68253;52.506;5.486;2023-03-14T05:31:28;5.82;;;0.80;;
78875;SDS011;68253;52.506;5.486;2023-03-14T05:34:07;3.95;;;0.60;;
78875;SDS011;68253;52.506;5.486;2023-03-14T05:36:48;3.78;;;0.80;;
78875;SDS011;68253;52.506;5.486;2023-03-14T05:39:40;3.55;;;0.60;;
78875;SDS011;68253;52.506;5.486;2023-03-14T05:42:20;3.47;;;0.65;;
78875;SDS011;68253;52.506;5.486;2023-03-14T05:45:06;3.40;;;0.52;;
78875;SDS011;68253;52.506;5.486;2023-03-14T05:47:48;3.25;;;0.68;;
78875;SDS011;68253;52.506;5.486;2023-03-14T05:50:35;3.70;;;0.70;;
78875;SDS011;68253;52.506;5.486;2023-03-14T05:53:25;3.20;;;0.85;;
78875;SDS011;68253;52.506;5.486;2023-03-14T05:56:10;2.80;;;0.60;;
78875;SDS011;68253;52.506;5.486;2023-03-14T05:59:05;4.30;;;0.80;;
78875;SDS011;68253;52.506;5.486;2023-03-14T06:01:48;3.63;;;0.98;;
78875;SDS011;68253;52.506;5.486;2023-03-14T06:04:18;1.95;;;0.47;;
78875;SDS011;68253;52.506;5.486;2023-03-14T06:06:49;3.38;;;0.77;;
78875;SDS011;68253;52.506;5.486;2023-03-14T06:09:16;2.30;;;0.45;;
78875;SDS011;68253;52.506;5.486;2023-03-14T06:11:44;3.47;;;0.50;;
78875;SDS011;68253;52.506;5.486;2023-03-14T06:14:12;2.60;;;0.50;;
78875;SDS011;68253;52.506;5.486;2023-03-14T06:16:41;3.75;;;0.75;;
78875;SDS011;68253;52.506;5.486;2023-03-14T06:19:08;2.33;;;0.40;;
78875;SDS011;68253;52.506;5.486;2023-03-14T06:21:35;2.65;;;0.57;;
78875;SDS011;68253;52.506;5.486;2023-03-14T06:24:02;3.08;;;0.80;;
78875;SDS011;68253;52.506;5.486;2023-03-14T06:26:31;2.00;;;0.50;;
78875;SDS011;68253;52.506;5.486;2023-03-14T06:28:58;4.10;;;0.88;;
78875;SDS011;68253;52.506;5.486;2023-03-14T06:31:29;1.98;;;0.60;;
78875;SDS011;68253;52.506;5.486;2023-03-14T06:34:00;2.97;;;0.57;;
78875;SDS011;68253;52.506;5.486;2023-03-14T06:36:29;2.78;;;0.70;;
78875;SDS011;68253;52.506;5.486;2023-03-14T06:38:56;2.30;;;0.60;;
78875;SDS011;68253;52.506;5.486;2023-03-14T06:41:23;1.95;;;0.60;;
78875;SDS011;68253;52.506;5.486;2023-03-14T06:43:51;3.13;;;0.60;;
78875;SDS011;68253;52.506;5.486;2023-03-14T06:46:19;2.80;;;0.70;;
78875;SDS011;68253;52.506;5.486;2023-03-14T06:48:45;3.15;;;0.60;;
78875;SDS011;68253;52.506;5.486;2023-03-14T06:51:12;1.58;;;0.50;;
78875;SDS011;68253;52.506;5.486;2023-03-14T06:53:38;3.10;;;0.30;;
78875;SDS011;68253;52.506;5.486;2023-03-14T06:56:05;1.90;;;0.30;;
78875;SDS011;68253;52.506;5.486;2023-03-14T06:58:33;3.28;;;0.50;;
78875;SDS011;68253;52.506;5.486;2023-03-14T07:01:01;2.08;;;0.35;;
78875;SDS011;68253;52.506;5.486;2023-03-14T07:03:32;2.00;;;0.35;;
78875;SDS011;68253;52.506;5.486;2023-03-14T07:05:59;2.53;;;0.50;;
78875;SDS011;68253;52.506;5.486;2023-03-14T07:08:25;1.90;;;0.40;;
78875;SDS011;68253;52.506;5.486;2023-03-14T07:10:52;0.88;;;0.40;;
78875;SDS011;68253;52.506;5.486;2023-03-14T07:13:18;2.80;;;0.40;;
78875;SDS011;68253;52.506;5.486;2023-03-14T07:16:10;1.30;;;0.30;;
78875;SDS011;68253;52.506;5.486;2023-03-14T07:18:37;2.38;;;0.60;;
78875;SDS011;68253;52.506;5.486;2023-03-14T07:21:05;2.30;;;0.32;;
78875;SDS011;68253;52.506;5.486;2023-03-14T07:23:33;2.10;;;0.30;;
78875;SDS011;68253;52.506;5.486;2023-03-14T07:25:59;2.97;;;0.50;;
78875;SDS011;68253;52.506;5.486;2023-03-14T07:28:26;2.00;;;0.40;;
78875;SDS011;68253;52.506;5.486;2023-03-14T07:31:00;2.03;;;0.40;;
78875;SDS011;68253;52.506;5.486;2023-03-14T07:33:30;2.35;;;0.50;;
78875;SDS011;68253;52.506;5.486;2023-03-14T07:35:57;1.85;;;0.40;;
78875;SDS011;68253;52.506;5.486;2023-03-14T07:38:23;2.63;;;0.45;;
78875;SDS011;68253;52.506;5.486;2023-03-14T07:41:09;2.80;;;0.32;;
78875;SDS011;68253;52.506;5.486;2023-03-14T07:43:40;1.08;;;0.28;;
78875;SDS011;68253;52.506;5.486;2023-03-14T07:46:07;2.05;;;0.40;;
78875;SDS011;68253;52.506;5.486;2023-03-14T07:48:33;2.08;;;0.40;;
78875;SDS011;68253;52.506;5.486;2023-03-14T07:50:59;2.10;;;0.45;;
78875;SDS011;68253;52.506;5.486;2023-03-14T07:53:25;2.00;;;0.30;;
78875;SDS011;68253;52.506;5.486;2023-03-14T07:55:52;1.67;;;0.30;;
78875;SDS011;68253;52.506;5.486;2023-03-14T07:58:19;2.50;;;0.40;;
78875;SDS011;68253;52.506;5.486;2023-03-14T08:00:50;1.85;;;0.40;;
78875;SDS011;68253;52.506;5.486;2023-03-14T08:03:17;1.52;;;0.52;;
78875;SDS011;68253;52.506;5.486;2023-03-14T08:05:43;2.55;;;0.30;;
78875;SDS011;68253;52.506;5.486;2023-03-14T08:08:12;1.58;;;0.30;;
78875;SDS011;68253;52.506;5.486;2023-03-14T08:10:38;2.92;;;0.40;;
78875;SDS011;68253;52.506;5.486;2023-03-14T08:13:04;1.90;;;0.40;;
78875;SDS011;68253;52.506;5.486;2023-03-14T08:15:30;1.70;;;0.30;;
78875;SDS011;68253;52.506;5.486;2023-03-14T08:17:57;2.05;;;0.30;;
78875;SDS011;68253;52.506;5.486;2023-03-14T08:20:25;1.17;;;0.32;;
78875;SDS011;68253;52.506;5.486;2023-03-14T08:22:54;1.10;;;0.40;;
78875;SDS011;68253;52.506;5.486;2023-03-14T08:25:22;1.85;;;0.30;;
78875;SDS011;68253;52.506;5.486;2023-03-14T08:27:48;1.50;;;0.30;;
78875;SDS011;68253;52.506;5.486;2023-03-14T08:30:14;2.65;;;0.45;;
78875;SDS011;68253;52.506;5.486;2023-03-14T08:32:41;2.17;;;0.22;;
78875;SDS011;68253;52.506;5.486;2023-03-14T08:35:08;3.17;;;0.43;;
78875;SDS011;68253;52.506;5.486;2023-03-14T08:37:35;4.65;;;0.60;;
78875;SDS011;68253;52.506;5.486;2023-03-14T08:40:02;2.53;;;0.47;;
78875;SDS011;68253;52.506;5.486;2023-03-14T08:42:35;1.13;;;0.40;;
78875;SDS011;68253;52.506;5.486;2023-03-14T08:45:02;3.97;;;0.50;;
78875;SDS011;68253;52.506;5.486;2023-03-14T08:47:28;1.50;;;0.50;;
78875;SDS011;68253;52.506;5.486;2023-03-14T08:49:54;1.38;;;0.40;;
78875;SDS011;68253;52.506;5.486;2023-03-14T08:52:21;1.67;;;0.40;;
78875;SDS011;68253;52.506;5.486;2023-03-14T08:54:47;3.22;;;0.45;;
78875;SDS011;68253;52.506;5.486;2023-03-14T08:57:13;3.13;;;0.45;;
78875;SDS011;68253;52.506;5.486;2023-03-14T08:59:39;2.20;;;0.40;;
78875;SDS011;68253;52.506;5.486;2023-03-14T09:02:05;1.65;;;0.32;;
78875;SDS011;68253;52.506;5.486;2023-03-14T09:04:34;1.38;;;0.40;;
78875;SDS011;68253;52.506;5.486;2023-03-14T09:07:00;1.92;;;0.40;;
78875;SDS011;68253;52.506;5.486;2023-03-14T09:09:26;5.95;;;1.10;;
78875;SDS011;68253;52.506;5.486;2023-03-14T09:11:53;2.83;;;0.45;;
78875;SDS011;68253;52.506;5.486;2023-03-14T09:14:19;1.60;;;0.32;;
78875;SDS011;68253;52.506;5.486;2023-03-14T09:16:45;1.42;;;0.30;;
78875;SDS011;68253;52.506;5.486;2023-03-14T09:19:11;1.83;;;0.20;;
78875;SDS011;68253;52.506;5.486;2023-03-14T09:21:37;2.67;;;0.60;;
78875;SDS011;68253;52.506;5.486;2023-03-14T09:24:04;2.83;;;0.30;;
78875;SDS011;68253;52.506;5.486;2023-03-14T09:26:31;1.63;;;0.40;;
78875;SDS011;68253;52.506;5.486;2023-03-14T09:28:57;2.85;;;0.70;;
78875;SDS011;68253;52.506;5.486;2023-03-14T09:31:23;4.25;;;0.60;;
78875;SDS011;68253;52.506;5.486;2023-03-14T09:33:49;3.08;;;0.45;;
78875;SDS011;68253;52.506;5.486;2023-03-14T09:36:15;1.52;;;0.30;;
78875;SDS011;68253;52.506;5.486;2023-03-14T09:38:41;2.10;;;0.38;;
78875;SDS011;68253;52.506;5.486;2023-03-14T09:41:12;1.50;;;0.38;;
78875;SDS011;68253;52.506;5.486;2023-03-14T09:43:46;1.25;;;0.30;;
78875;SDS011;68253;52.506;5.486;2023-03-14T09:46:16;3.72;;;0.63;;
78875;SDS011;68253;52.506;5.486;2023-03-14T09:48:43;1.77;;;0.40;;
78875;SDS011;68253;52.506;5.486;2023-03-14T09:51:14;2.08;;;0.30;;
78875;SDS011;68253;52.506;5.486;2023-03-14T09:53:45;2.85;;;0.40;;
78875;SDS011;68253;52.506;5.486;2023-03-14T09:56:28;2.25;;;0.30;;
78875;SDS011;68253;52.506;5.486;2023-03-14T09:59:01;3.47;;;0.38;;
78875;SDS011;68253;52.506;5.486;2023-03-14T10:01:31;2.80;;;0.43;;
78875;SDS011;68253;52.506;5.486;2023-03-14T10:04:13;3.17;;;0.55;;
78875;SDS011;68253;52.506;5.486;2023-03-14T10:06:42;1.95;;;0.40;;
78875;SDS011;68253;52.506;5.486;2023-03-14T10:09:30;3.88;;;0.60;;
78875;SDS011;68253;52.506;5.486;2023-03-14T10:11:56;1.48;;;0.30;;
78875;SDS011;68253;52.506;5.486;2023-03-14T10:14:35;2.80;;;0.43;;
78875;SDS011;68253;52.506;5.486;2023-03-14T10:17:07;3.40;;;0.45;;
78875;SDS011;68253;52.506;5.486;2023-03-14T10:19:36;3.95;;;0.50;;
78875;SDS011;68253;52.506;5.486;2023-03-14T10:22:03;3.22;;;0.30;;
78875;SDS011;68253;52.506;5.486;2023-03-14T10:24:34;2.25;;;0.30;;
78875;SDS011;68253;52.506;5.486;2023-03-14T10:27:04;1.95;;;0.38;;
78875;SDS011;68253;52.506;5.486;2023-03-14T10:29:55;2.60;;;0.40;;
78875;SDS011;68253;52.506;5.486;2023-03-14T10:32:27;1.85;;;0.35;;
78875;SDS011;68253;52.506;5.486;2023-03-14T10:40:18;7.70;;;1.02;;
78875;SDS011;68253;52.506;5.486;2023-03-14T10:42:46;2.60;;;0.50;;
78875;SDS011;68253;52.506;5.486;2023-03-14T10:53:39;1.17;;;0.10;;
78875;SDS011;68253;52.506;5.486;2023-03-14T10:56:23;4.07;;;0.45;;
78875;SDS011;68253;52.506;5.486;2023-03-14T10:58:51;3.45;;;0.77;;
78875;SDS011;68253;52.506;5.486;2023-03-14T11:07:03;1.30;;;0.25;;
78875;SDS011;68253;52.506;5.486;2023-03-14T11:09:52;2.92;;;0.40;;
78875;SDS011;68253;52.506;5.486;2023-03-14T11:15:17;3.17;;;0.40;;
78875;SDS011;68253;52.506;5.486;2023-03-14T11:31:46;3.20;;;0.57;;
78875;SDS011;68253;52.506;5.486;2023-03-14T11:34:15;2.38;;;0.32;;
78875;SDS011;68253;52.506;5.486;2023-03-14T11:39:25;2.33;;;0.40;;
78875;SDS011;68253;52.506;5.486;2023-03-14T11:41:54;3.83;;;0.70;;
78875;SDS011;68253;52.506;5.486;2023-03-14T11:44:27;2.65;;;0.30;;
78875;SDS011;68253;52.506;5.486;2023-03-14T11:49:40;2.72;;;0.40;;
78875;SDS011;68253;52.506;5.486;2023-03-14T11:52:17;3.97;;;0.40;;
78875;SDS011;68253;52.506;5.486;2023-03-14T11:54:47;1.33;;;0.22;;
78875;SDS011;68253;52.506;5.486;2023-03-14T11:57:19;2.03;;;0.40;;
78875;SDS011;68253;52.506;5.486;2023-03-14T11:59:52;1.80;;;0.30;;
78875;SDS011;68253;52.506;5.486;2023-03-14T12:05:01;3.05;;;0.38;;
78875;SDS011;68253;52.506;5.486;2023-03-14T12:10:49;3.08;;;0.60;;
78875;SDS011;68253;52.506;5.486;2023-03-14T12:13:19;2.20;;;0.28;;
78875;SDS011;68253;52.506;5.486;2023-03-14T12:15:59;2.70;;;0.50;;
78875;SDS011;68253;52.506;5.486;2023-03-14T12:18:30;1.85;;;0.35;;
78875;SDS011;68253;52.506;5.486;2023-03-14T12:21:02;2.25;;;0.30;;
78875;SDS011;68253;52.506;5.486;2023-03-14T12:23:35;2.80;;;0.47;;
78875;SDS011;68253;52.506;5.486;2023-03-14T12:28:37;2.63;;;0.50;;
78875;SDS011;68253;52.506;5.486;2023-03-14T12:41:52;2.88;;;0.50;;
78875;SDS011;68253;52.506;5.486;2023-03-14T12:46:58;3.88;;;0.75;;
78875;SDS011;68253;52.506;5.486;2023-03-14T12:49:31;4.00;;;0.45;;
78875;SDS011;68253;52.506;5.486;2023-03-14T12:52:01;1.55;;;0.20;;
78875;SDS011;68253;52.506;5.486;2023-03-14T12:54:32;1.50;;;0.28;;
78875;SDS011;68253;52.506;5.486;2023-03-14T13:00:00;2.15;;;0.38;;
78875;SDS011;68253;52.506;5.486;2023-03-14T13:02:42;2.35;;;0.30;;
78875;SDS011;68253;52.506;5.486;2023-03-14T13:05:12;3.65;;;0.40;;
78875;SDS011;68253;52.506;5.486;2023-03-14T13:13:02;2.03;;;0.40;;
78875;SDS011;68253;52.506;5.486;2023-03-14T13:15:44;2.70;;;0.43;;
78875;SDS011;68253;52.506;5.486;2023-03-14T13:18:19;2.47;;;0.40;;
78875;SDS011;68253;52.506;5.486;2023-03-14T13:21:14;2.65;;;0.40;;
78875;SDS011;68253;52.506;5.486;2023-03-14T13:26:26;1.77;;;0.30;;
78875;SDS011;68253;52.506;5.486;2023-03-14T13:29:35;1.45;;;0.25;;
78875;SDS011;68253;52.506;5.486;2023-03-14T13:31:58;3.08;;;0.47;;
78875;SDS011;68253;52.506;5.486;2023-03-14T13:34:28;2.60;;;0.45;;
78875;SDS011;68253;52.506;5.486;2023-03-14T13:36:56;4.00;;;0.30;;
78875;SDS011;68253;52.506;5.486;2023-03-14T13:39:23;1.95;;;0.40;;
78875;SDS011;68253;52.506;5.486;2023-03-14T13:41:52;2.25;;;0.32;;
78875;SDS011;68253;52.506;5.486;2023-03-14T13:46:57;1.92;;;0.20;;
78875;SDS011;68253;52.506;5.486;2023-03-14T13:49:24;1.83;;;0.30;;
78875;SDS011;68253;52.506;5.486;2023-03-14T13:51:52;2.45;;;0.40;;
78875;SDS011;68253;52.506;5.486;2023-03-14T13:54:18;2.13;;;0.30;;
78875;SDS011;68253;52.506;5.486;2023-03-14T13:56:46;3.38;;;0.50;;
78875;SDS011;68253;52.506;5.486;2023-03-14T13:59:23;2.38;;;0.35;;
78875;SDS011;68253;52.506;5.486;2023-03-14T14:01:50;1.92;;;0.30;;
78875;SDS011;68253;52.506;5.486;2023-03-14T14:04:18;2.65;;;0.20;;
78875;SDS011;68253;52.506;5.486;2023-03-14T14:09:23;1.92;;;0.22;;
78875;SDS011;68253;52.506;5.486;2023-03-14T14:14:30;2.38;;;0.40;;
78875;SDS011;68253;52.506;5.486;2023-03-14T14:17:00;3.75;;;0.52;;
78875;SDS011;68253;52.506;5.486;2023-03-14T14:19:29;2.22;;;0.38;;
78875;SDS011;68253;52.506;5.486;2023-03-14T14:24:27;1.15;;;0.20;;
78875;SDS011;68253;52.506;5.486;2023-03-14T14:26:59;1.67;;;0.30;;
78875;SDS011;68253;52.506;5.486;2023-03-14T14:29:43;2.35;;;0.38;;
78875;SDS011;68253;52.506;5.486;2023-03-14T14:32:12;2.20;;;0.25;;
78875;SDS011;68253;52.506;5.486;2023-03-14T14:34:47;1.95;;;0.32;;
78875;SDS011;68253;52.506;5.486;2023-03-14T14:39:49;2.42;;;0.60;;
78875;SDS011;68253;52.506;5.486;2023-03-14T14:42:19;3.15;;;0.50;;
78875;SDS011;68253;52.506;5.486;2023-03-14T14:44:50;2.97;;;0.40;;
78875;SDS011;68253;52.506;5.486;2023-03-14T14:47:18;3.10;;;0.30;;
78875;SDS011;68253;52.506;5.486;2023-03-14T14:49:49;2.55;;;0.40;;
78875;SDS011;68253;52.506;5.486;2023-03-14T14:52:22;2.90;;;0.30;;
78875;SDS011;68253;52.506;5.486;2023-03-14T14:54:59;3.22;;;0.50;;
78875;SDS011;68253;52.506;5.486;2023-03-14T14:57:27;4.10;;;0.82;;
78875;SDS011;68253;52.506;5.486;2023-03-14T15:00:00;3.72;;;0.50;;
78875;SDS011;68253;52.506;5.486;2023-03-14T15:02:38;12.02;;;1.77;;
78875;SDS011;68253;52.506;5.486;2023-03-14T15:05:19;9.30;;;1.67;;
78875;SDS011;68253;52.506;5.486;2023-03-14T15:07:46;9.18;;;1.33;;
78875;SDS011;68253;52.506;5.486;2023-03-14T15:10:14;7.47;;;1.05;;
78875;SDS011;68253;52.506;5.486;2023-03-14T15:12:44;9.77;;;1.13;;
78875;SDS011;68253;52.506;5.486;2023-03-14T15:15:11;11.15;;;1.50;;
78875;SDS011;68253;52.506;5.486;2023-03-14T15:17:37;6.22;;;0.95;;
78875;SDS011;68253;52.506;5.486;2023-03-14T15:20:04;7.13;;;1.10;;
78875;SDS011;68253;52.506;5.486;2023-03-14T15:22:32;7.43;;;0.90;;
78875;SDS011;68253;52.506;5.486;2023-03-14T15:24:58;7.38;;;1.27;;
78875;SDS011;68253;52.506;5.486;2023-03-14T15:27:24;4.32;;;0.70;;
78875;SDS011;68253;52.506;5.486;2023-03-14T15:29:51;5.57;;;0.85;;
78875;SDS011;68253;52.506;5.486;2023-03-14T15:32:17;6.63;;;0.80;;
78875;SDS011;68253;52.506;5.486;2023-03-14T15:34:43;7.32;;;0.90;;
78875;SDS011;68253;52.506;5.486;2023-03-14T15:37:14;8.40;;;0.70;;
78875;SDS011;68253;52.506;5.486;2023-03-14T15:39:44;6.18;;;0.85;;
78875;SDS011;68253;52.506;5.486;2023-03-14T15:42:11;7.82;;;1.23;;
78875;SDS011;68253;52.506;5.486;2023-03-14T15:44:37;8.93;;;1.20;;
78875;SDS011;68253;52.506;5.486;2023-03-14T15:47:04;6.38;;;1.00;;
78875;SDS011;68253;52.506;5.486;2023-03-14T15:49:31;6.82;;;1.15;;
78875;SDS011;68253;52.506;5.486;2023-03-14T15:51:58;6.53;;;0.98;;
78875;SDS011;68253;52.506;5.486;2023-03-14T15:54:24;4.00;;;1.05;;
78875;SDS011;68253;52.506;5.486;2023-03-14T15:56:56;8.45;;;1.60;;
78875;SDS011;68253;52.506;5.486;2023-03-14T15:59:23;6.57;;;1.20;;
78875;SDS011;68253;52.506;5.486;2023-03-14T16:01:49;5.10;;;0.93;;
78875;SDS011;68253;52.506;5.486;2023-03-14T16:04:16;6.30;;;1.20;;
78875;SDS011;68253;52.506;5.486;2023-03-14T16:06:43;7.72;;;1.10;;
78875;SDS011;68253;52.506;5.486;2023-03-14T16:09:10;7.55;;;1.48;;
78875;SDS011;68253;52.506;5.486;2023-03-14T16:11:37;6.20;;;1.00;;
78875;SDS011;68253;52.506;5.486;2023-03-14T16:14:03;4.55;;;0.80;;
78875;SDS011;68253;52.506;5.486;2023-03-14T16:16:29;4.35;;;1.00;;
78875;SDS011;68253;52.506;5.486;2023-03-14T16:18:55;7.25;;;1.00;;
78875;SDS011;68253;52.506;5.486;2023-03-14T16:21:21;4.97;;;0.80;;
78875;SDS011;68253;52.506;5.486;2023-03-14T16:23:48;6.07;;;1.00;;
78875;SDS011;68253;52.506;5.486;2023-03-14T16:26:15;6.30;;;0.90;;
78875;SDS011;68253;52.506;5.486;2023-03-14T16:28:43;6.63;;;1.00;;
78875;SDS011;68253;52.506;5.486;2023-03-14T16:31:14;5.93;;;1.00;;
78875;SDS011;68253;52.506;5.486;2023-03-14T16:33:42;5.53;;;0.80;;
78875;SDS011;68253;52.506;5.486;2023-03-14T16:36:10;3.40;;;0.70;;
78875;SDS011;68253;52.506;5.486;2023-03-14T16:38:38;6.28;;;0.80;;
78875;SDS011;68253;52.506;5.486;2023-03-14T16:43:42;5.43;;;0.73;;
78875;SDS011;68253;52.506;5.486;2023-03-14T16:46:13;3.30;;;0.60;;
78875;SDS011;68253;52.506;5.486;2023-03-14T16:48:43;5.63;;;0.60;;
78875;SDS011;68253;52.506;5.486;2023-03-14T16:51:10;4.85;;;0.65;;